Time;durP1;ratioP1;P1;durP2;ratioP2;P2;SDS_P1;SDS_P2;PMS_P1;PMS_P2;Temp;Humidity;BMP_temperature;BMP_pressure;BME280_temperature;BME280_humidity;BME280_pressure;Samples;Min_cycle;Max_cycle;Signal;HPM_P1;HPM_P2
2022/12/11 00:00:21;;;;;;;36.35;17.35;;;-4.00;99.90;;;-5.08;100.00;97099.06;4999623;28;20080;-74
2022/12/11 00:02:48;;;;;;;36.47;17.48;;;-3.90;99.90;;;-5.08;100.00;97109.16;5016572;28;20439;-75
2022/12/11 00:05:15;;;;;;;36.55;16.98;;;-3.80;99.90;;;-4.94;100.00;97106.78;5003988;28;20057;-75
2022/12/11 00:07:42;;;;;;;31.88;15.70;;;-3.70;99.90;;;-4.99;100.00;97110.97;5002091;28;20735;-74
2022/12/11 00:10:09;;;;;;;36.45;17.48;;;-3.70;99.90;;;-4.88;100.00;97114.47;5000351;28;20050;-74
2022/12/11 00:12:36;;;;;;;35.42;18.42;;;-3.50;99.90;;;-4.81;100.00;97114.50;5003254;28;20060;-74
2022/12/11 00:15:03;;;;;;;32.25;16.40;;;-3.40;99.90;;;-4.60;100.00;97121.50;5003152;28;20046;-74
2022/12/11 00:17:30;;;;;;;40.63;19.80;;;-3.40;99.90;;;-4.55;100.00;97119.84;5002831;28;20125;-74
2022/12/11 00:19:57;;;;;;;37.78;20.63;;;-3.20;99.90;;;-4.47;100.00;97115.69;5001006;28;20050;-74
2022/12/11 00:22:24;;;;;;;42.30;20.20;;;-3.10;99.90;;;-4.49;100.00;97108.09;5004313;28;20046;-74
2022/12/11 00:24:51;;;;;;;35.08;17.23;;;-3.00;99.90;;;-4.34;100.00;97107.34;5002814;28;20419;-74
2022/12/11 00:27:18;;;;;;;43.35;21.25;;;-3.00;99.90;;;-4.42;100.00;97114.06;5002651;28;20046;-75
2022/12/11 00:29:45;;;;;;;48.20;23.25;;;-3.00;99.90;;;-4.60;100.00;97107.13;5002762;28;21601;-74
2022/12/11 00:32:12;;;;;;;41.25;21.38;;;-2.90;99.90;;;-4.30;100.00;97105.72;5002247;28;20061;-73
2022/12/11 00:34:39;;;;;;;36.15;20.02;;;-3.00;99.90;;;-4.25;100.00;97098.97;5004705;28;20121;-74
2022/12/11 00:37:06;;;;;;;39.33;20.73;;;-2.90;99.90;;;-4.30;100.00;97093.03;5006087;28;20049;-73
2022/12/11 00:39:33;;;;;;;45.72;22.35;;;-2.90;99.90;;;-4.34;100.00;97096.38;5005096;28;20156;-74
2022/12/11 00:42:00;;;;;;;40.22;19.92;;;-3.00;99.90;;;-4.27;100.00;97091.34;5003667;28;20056;-74
2022/12/11 00:44:27;;;;;;;47.65;22.92;;;-3.00;99.90;;;-4.03;100.00;97103.38;5006898;28;20472;-74
2022/12/11 00:46:53;;;;;;;41.33;19.50;;;-3.00;99.90;;;-3.95;100.00;97102.56;5003218;28;20046;-74
2022/12/11 00:49:20;;;;;;;56.30;25.95;;;-3.00;99.90;;;-4.20;100.00;97102.38;5003294;28;20052;-74
2022/12/11 00:51:47;;;;;;;40.63;19.95;;;-3.00;99.90;;;-4.03;100.00;97105.06;5004993;28;20049;-74
2022/12/11 00:54:15;;;;;;;39.15;19.88;;;-3.00;99.90;;;-4.34;100.00;97117.50;5003152;28;20046;-74
2022/12/11 00:56:42;;;;;;;34.92;17.20;;;-3.00;99.90;;;-4.19;100.00;97110.88;5000820;28;20064;-74
2022/12/11 00:59:09;;;;;;;33.30;17.70;;;-3.00;99.90;;;-4.15;100.00;97115.09;5003827;28;20060;-74
2022/12/11 01:01:36;;;;;;;31.25;15.13;;;-2.90;99.90;;;-4.00;100.00;97115.22;5001758;28;20053;-74
2022/12/11 01:04:03;;;;;;;36.85;16.45;;;-2.90;99.90;;;-4.11;100.00;97111.75;5002536;28;20049;-74
2022/12/11 01:06:30;;;;;;;34.92;18.83;;;-2.80;99.90;;;-4.06;100.00;97113.50;5001219;28;20062;-74
2022/12/11 01:11:43;;;;;;;35.05;16.90;;;-2.70;99.90;;;-3.99;100.00;97116.94;5001421;28;20046;-74
2022/12/11 01:14:10;;;;;;;42.33;20.60;;;-2.70;99.90;;;-4.01;100.00;97121.97;5001350;28;20057;-74
2022/12/11 01:16:38;;;;;;;43.17;18.98;;;-2.70;99.90;;;-3.90;100.00;97122.06;5001603;28;20053;-73
2022/12/11 01:19:05;;;;;;;34.08;16.33;;;-2.70;99.90;;;-4.01;100.00;97128.75;5001615;28;20281;-74
2022/12/11 01:21:32;;;;;;;39.70;18.55;;;-2.70;99.90;;;-3.91;100.00;97122.91;5002452;28;20057;-73
2022/12/11 01:23:59;;;;;;;47.25;21.92;;;-2.70;99.90;;;-3.96;100.00;97123.72;4999746;28;20412;-73
2022/12/11 01:26:26;;;;;;;45.63;21.05;;;-2.80;99.90;;;-3.90;100.00;97132.22;5000086;28;20050;-74
2022/12/11 01:28:53;;;;;;;42.22;20.80;;;-2.80;99.90;;;-3.98;100.00;97133.84;5005343;28;20114;-74
2022/12/11 01:31:20;;;;;;;39.20;17.75;;;-2.80;99.90;;;-3.97;100.00;97127.06;5004592;28;20049;-73
2022/12/11 01:33:47;;;;;;;45.38;21.15;;;-2.70;99.90;;;-3.82;100.00;97124.66;5002557;28;20133;-73
2022/12/11 01:36:18;;;;;;;45.67;24.25;;;-2.70;99.90;;;-3.64;100.00;97129.00;5005508;28;20053;-74
2022/12/11 01:38:47;;;;;;;46.60;20.67;;;-2.70;99.90;;;-3.69;100.00;97134.03;5018581;28;20136;-74
2022/12/11 01:41:16;;;;;;;39.30;18.40;;;-2.70;99.90;;;-4.10;100.00;97126.16;5003527;28;20582;-74
2022/12/11 01:44:07;;;;;;;44.72;22.45;;;-2.80;99.90;;;-4.18;100.00;97142.97;5006363;28;20069;-74
2022/12/11 01:46:36;;;;;;;40.50;18.33;;;-2.70;99.90;;;-3.99;100.00;97139.75;5021296;28;20050;-74
2022/12/11 01:49:08;;;;;;;39.75;21.75;;;-2.70;99.90;;;-4.10;100.00;97139.66;5006047;28;20069;-74
2022/12/11 01:52:05;;;;;;;48.92;24.05;;;-2.70;99.90;;;-3.98;100.00;97143.97;5002132;28;20049;-74
2022/12/11 01:54:32;;;;;;;44.17;20.65;;;-2.70;99.90;;;-4.19;100.00;97162.41;5004776;28;20148;-74
2022/12/11 01:57:08;;;;;;;45.65;20.48;;;-2.70;99.90;;;-4.02;100.00;97150.69;5008835;28;20057;-73
2022/12/11 01:59:39;;;;;;;55.33;22.42;;;-2.70;99.90;;;-3.95;100.00;97153.28;5001466;28;20050;-73
2022/12/11 02:02:27;;;;;;;44.50;21.75;;;-2.70;99.90;;;-3.89;100.00;97151.66;5002435;28;20099;-73
2022/12/11 02:04:54;;;;;;;49.13;20.70;;;-2.70;99.90;;;-4.00;100.00;97148.19;5004237;28;20623;-73
2022/12/11 02:07:21;;;;;;;52.00;21.83;;;-2.70;99.90;;;-4.12;100.00;97153.16;5002051;28;20061;-73
2022/12/11 02:09:48;;;;;;;55.08;25.77;;;-2.70;99.90;;;-3.94;100.00;97149.94;5000967;28;20095;-73
2022/12/11 02:12:33;;;;;;;51.20;22.27;;;-2.70;99.90;;;-3.91;100.00;97155.84;5002242;28;20071;-73
2022/12/11 02:15:18;;;;;;;60.17;24.13;;;-2.80;99.90;;;-4.05;100.00;97160.81;5017624;28;20072;-73
2022/12/11 02:18:07;;;;;;;55.63;23.10;;;-2.80;99.90;;;-3.87;100.00;97166.88;5004047;28;20492;-73
2022/12/11 02:21:12;;;;;;;49.10;21.83;;;-2.80;99.90;;;-3.94;100.00;97162.59;5003312;28;20364;-74
2022/12/11 02:23:51;;;;;;;59.90;23.10;;;-2.80;99.90;;;-4.02;100.00;97163.38;4970207;28;20053;-75
2022/12/11 02:26:58;;;;;;;55.95;23.35;;;-2.80;99.90;;;-4.06;100.00;97166.75;5003197;28;20045;-73
2022/12/11 02:29:35;;;;;;;57.33;26.30;;;-2.80;99.90;;;-4.21;100.00;97157.31;4998759;28;20081;-72
2022/12/11 02:32:10;;;;;;;65.07;25.35;;;-2.80;99.90;;;-4.33;100.00;97166.47;4999753;28;20050;-73
2022/12/11 02:34:48;;;;;;;65.40;26.20;;;-2.80;99.90;;;-4.12;100.00;97161.59;5002412;28;20077;-73
2022/12/11 02:37:19;;;;;;;55.30;22.05;;;-2.80;99.90;;;-4.12;100.00;97156.53;5018092;28;20064;-73
2022/12/11 02:39:51;;;;;;;62.28;26.50;;;-2.80;99.90;;;-4.05;100.00;97160.81;5003725;28;20144;-73
2022/12/11 02:42:19;;;;;;;68.22;25.75;;;-2.80;99.90;;;-3.89;100.00;97159.25;5016396;28;20068;-73
2022/12/11 02:44:49;;;;;;;68.90;28.38;;;-2.80;99.90;;;-3.96;100.00;97154.13;5006166;28;20145;-73
2022/12/11 02:47:18;;;;;;;65.40;27.30;;;-2.70;99.90;;;-3.99;100.00;97157.50;5002098;28;20045;-73
2022/12/11 02:49:48;;;;;;;79.80;29.85;;;-2.70;99.90;;;-4.22;100.00;97150.56;5000977;28;20140;-73
2022/12/11 02:52:20;;;;;;;78.90;32.38;;;-2.70;99.90;;;-4.02;100.00;97143.09;5003091;28;20078;-72
2022/12/11 02:54:51;;;;;;;87.80;32.72;;;-2.70;99.90;;;-4.13;100.00;97141.31;5003413;28;20067;-73
2022/12/11 02:57:43;;;;;;;72.45;26.25;;;-2.80;99.90;;;-4.02;100.00;97148.16;5001511;28;20443;-73
2022/12/11 03:00:11;;;;;;;73.82;30.60;;;-2.80;99.90;;;-3.97;100.00;97139.75;4983629;28;20049;-73
2022/12/11 03:02:39;;;;;;;66.07;25.27;;;-2.80;99.90;;;-4.05;100.00;97142.22;4997764;28;20508;-72
2022/12/11 03:05:07;;;;;;;77.63;29.75;;;-2.80;99.90;;;-3.97;100.00;97134.66;5000045;28;20050;-72
2022/12/11 03:07:39;;;;;;;73.07;28.02;;;-2.90;99.90;;;-3.96;100.00;97139.75;4992338;28;20060;-73
2022/12/11 03:10:13;;;;;;;73.50;29.75;;;-2.80;99.90;;;-3.97;100.00;97140.59;5004316;28;20512;-73
2022/12/11 03:12:45;;;;;;;72.65;28.50;;;-2.80;99.90;;;-4.00;100.00;97138.03;5016930;28;20057;-73
2022/12/11 03:15:29;;;;;;;82.10;31.08;;;-2.80;99.90;;;-4.02;100.00;97144.78;5000146;28;20074;-73
2022/12/11 03:18:26;;;;;;;74.30;31.35;;;-2.80;99.90;;;-3.86;100.00;97143.22;5001832;28;20053;-73
2022/12/11 03:21:34;;;;;;;70.78;25.40;;;-2.80;99.90;;;-3.90;100.00;97142.34;5002335;28;20148;-73
2022/12/11 03:24:09;;;;;;;68.30;27.80;;;-2.70;99.90;;;-3.74;100.00;97142.44;5005462;28;20056;-73
2022/12/11 03:26:53;;;;;;;92.03;29.75;;;-2.70;99.90;;;-3.82;100.00;97137.31;5003865;28;20062;-73
2022/12/11 03:29:35;;;;;;;83.40;30.45;;;-2.60;99.90;;;-3.69;100.00;97146.72;5003578;28;20137;-73
2022/12/11 03:32:14;;;;;;;56.83;20.85;;;-2.60;99.90;;;-3.88;100.00;97145.72;5001060;28;20069;-73
2022/12/11 03:35:19;;;;;;;102.07;35.95;;;-2.60;99.90;;;-4.07;100.00;97154.88;5004471;28;20046;-73
2022/12/11 03:37:48;;;;;;;71.50;24.98;;;-2.50;99.90;;;-4.07;100.00;97156.56;5005620;28;20054;-73
2022/12/11 03:40:19;;;;;;;97.60;36.00;;;-2.50;99.90;;;-3.97;100.00;97153.25;5001521;28;20042;-73
2022/12/11 03:42:50;;;;;;;111.20;33.55;;;-2.50;99.90;;;-4.00;100.00;97163.38;5005763;28;20057;-73
2022/12/11 03:45:20;;;;;;;84.25;31.52;;;-2.60;99.90;;;-3.79;100.00;97152.56;5009366;28;20137;-73
2022/12/11 03:47:49;;;;;;;75.70;26.05;;;-2.60;99.90;;;-3.75;100.00;97154.28;5019149;28;20065;-73
2022/12/11 03:50:17;;;;;;;88.95;32.45;;;-2.50;99.90;;;-3.63;100.00;97151.81;5003796;28;20042;-73
2022/12/11 03:52:47;;;;;;;87.47;35.20;;;-2.50;99.90;;;-3.72;100.00;97156.81;5005781;28;20134;-73
2022/12/11 03:55:16;;;;;;;102.43;36.20;;;-2.50;99.90;;;-3.66;100.00;97154.34;5005543;28;20128;-73
2022/12/11 03:57:43;;;;;;;76.35;29.92;;;-2.50;99.90;;;-3.58;100.00;97151.84;5002206;28;20056;-73
2022/12/11 04:00:16;;;;;;;75.05;30.02;;;-2.40;99.90;;;-3.66;100.00;97159.41;5003798;28;20164;-73
2022/12/11 04:02:44;;;;;;;75.05;26.92;;;-2.40;99.90;;;-3.60;100.00;97151.84;5018240;28;20045;-73
2022/12/11 04:05:11;;;;;;;79.65;28.80;;;-2.50;99.90;;;-3.61;100.00;97151.84;5004117;28;20056;-72
2022/12/11 04:07:38;;;;;;;81.63;30.02;;;-2.50;99.90;;;-3.73;100.00;97154.31;5004787;28;20056;-73
2022/12/11 04:10:06;;;;;;;94.05;31.30;;;-2.50;99.90;;;-3.84;100.00;97156.75;5005577;28;20065;-73
2022/12/11 04:12:33;;;;;;;81.82;31.33;;;-2.50;99.90;;;-3.71;100.00;97153.47;5003385;28;20058;-73
2022/12/11 04:15:02;;;;;;;92.40;32.55;;;-2.50;99.90;;;-3.52;100.00;97154.44;5003718;28;20053;-72
2022/12/11 04:26:07;;;;;;;85.55;29.83;;;-2.40;99.90;;;-3.51;100.00;97132.44;5002043;28;20100;-73
2022/12/11 04:28:34;;;;;;;76.25;29.02;;;-2.40;99.90;;;-3.55;100.00;97138.34;5003811;28;20057;-73
2022/12/11 04:31:02;;;;;;;94.90;32.10;;;-2.40;99.90;;;-3.59;100.00;97134.94;5001047;28;20046;-73
2022/12/11 04:33:29;;;;;;;80.40;29.30;;;-2.40;99.90;;;-3.50;100.00;97140.06;5002440;28;20049;-72
2022/12/11 04:35:58;;;;;;;87.78;31.08;;;-2.40;99.90;;;-3.58;100.00;97134.97;5003494;28;20054;-73
2022/12/11 04:38:26;;;;;;;83.18;28.95;;;-2.40;99.90;;;-3.47;100.00;97140.06;5000574;28;20045;-72
2022/12/11 04:41:11;;;;;;;80.03;28.15;;;-2.30;99.90;;;-3.41;100.00;97131.66;5003794;28;20054;-73
2022/12/11 04:43:39;;;;;;;110.10;33.05;;;-2.30;99.90;;;-3.70;100.00;97131.47;5004729;28;20046;-73
2022/12/11 04:46:14;;;;;;;80.63;28.27;;;-2.30;99.90;;;-3.43;100.00;97124.03;5006848;28;20037;-73
2022/12/11 04:48:42;;;;;;;86.05;31.23;;;-2.20;99.90;;;-3.59;100.00;97130.69;5019728;28;20078;-73
2022/12/11 04:51:09;;;;;;;78.25;30.05;;;-2.30;99.90;;;-3.35;100.00;97119.00;5007596;28;20045;-73
2022/12/11 04:53:37;;;;;;;89.28;29.27;;;-2.30;99.90;;;-3.33;100.00;97116.47;5003185;28;20053;-73
2022/12/11 04:56:06;;;;;;;79.85;29.80;;;-2.20;99.90;;;-3.25;100.00;97119.88;5003388;28;20080;-73
2022/12/11 04:58:32;;;;;;;68.80;26.67;;;-2.20;99.90;;;-3.28;100.00;97112.28;5003533;28;20038;-73
2022/12/11 05:00:59;;;;;;;93.47;31.83;;;-2.10;99.90;;;-3.29;100.00;97119.00;5003252;28;20076;-73
2022/12/11 05:03:26;;;;;;;72.22;26.60;;;-2.10;99.90;;;-3.14;100.00;97120.78;5001297;28;20049;-73
2022/12/11 05:05:53;;;;;;;91.35;33.95;;;-2.10;99.90;;;-3.23;100.00;97131.75;5004854;28;20057;-73
2022/12/11 05:08:20;;;;;;;86.53;30.70;;;-2.00;99.90;;;-3.30;100.00;97124.94;5000191;28;20057;-73
2022/12/11 05:11:07;;;;;;;79.35;28.55;;;-2.00;99.90;;;-2.99;100.00;97132.69;5003393;28;20500;-73
2022/12/11 05:13:34;;;;;;;70.85;28.40;;;-2.00;99.90;;;-2.84;100.00;97121.72;5004543;28;20050;-73
2022/12/11 05:16:07;;;;;;;76.95;29.27;;;-1.90;99.90;;;-3.02;100.00;97118.28;5005347;28;20046;-72
2022/12/11 05:18:35;;;;;;;62.05;25.00;;;-1.80;99.90;;;-3.02;100.00;97114.91;4987511;28;20048;-72
2022/12/11 05:21:09;;;;;;;78.13;30.20;;;-1.80;99.90;;;-2.93;100.00;97111.56;5002024;28;20049;-73
2022/12/11 05:23:36;;;;;;;74.82;29.25;;;-1.80;99.90;;;-3.10;100.00;97106.41;5004719;28;20419;-73
2022/12/11 05:26:08;;;;;;;87.25;30.33;;;-1.80;99.90;;;-3.42;100.00;97105.44;5002215;28;20133;-73
2022/12/11 05:28:37;;;;;;;76.65;29.60;;;-2.00;99.90;;;-3.32;100.00;97102.94;5005603;28;20053;-73
2022/12/11 05:31:17;;;;;;;74.57;28.52;;;-2.10;99.90;;;-3.29;100.00;97102.94;5004715;28;20054;-73
2022/12/11 05:33:46;;;;;;;88.43;31.90;;;-2.20;99.90;;;-3.24;100.00;97102.13;5015892;28;20058;-72
2022/12/11 05:36:19;;;;;;;77.80;29.08;;;-2.20;99.90;;;-3.30;100.00;97107.19;5003086;28;20480;-73
2022/12/11 05:38:47;;;;;;;75.72;27.73;;;-2.20;99.90;;;-3.26;100.00;97110.56;5001776;28;20065;-73
2022/12/11 05:41:17;;;;;;;73.10;24.35;;;-2.20;99.90;;;-3.49;100.00;97108.78;5008984;28;20042;-73
2022/12/11 05:43:44;;;;;;;66.28;26.52;;;-2.20;99.90;;;-3.34;100.00;97112.25;5004711;28;20069;-72
2022/12/11 05:46:21;;;;;;;65.22;23.80;;;-2.20;99.90;;;-3.32;100.00;97116.47;5002023;28;20042;-73
2022/12/11 05:48:52;;;;;;;87.13;31.05;;;-2.20;99.90;;;-3.41;100.00;97114.75;5002401;28;20058;-73
2022/12/11 05:51:19;;;;;;;59.67;23.08;;;-2.20;99.90;;;-3.38;100.00;97112.19;5008088;28;20050;-73
2022/12/11 05:53:48;;;;;;;76.15;27.13;;;-2.20;99.90;;;-3.40;100.00;97110.50;5008628;28;20053;-73
2022/12/11 05:56:21;;;;;;;68.32;24.00;;;-2.10;99.90;;;-3.40;100.00;97107.97;5001875;28;20426;-73
2022/12/11 05:58:48;;;;;;;77.78;26.70;;;-2.10;99.90;;;-3.36;100.00;97110.53;5000198;28;20042;-73
2022/12/11 06:01:34;;;;;;;67.97;23.42;;;-2.10;99.90;;;-3.26;100.00;97111.44;5003728;28;20056;-72
2022/12/11 06:04:02;;;;;;;65.47;21.98;;;-2.00;99.90;;;-3.40;100.00;97106.31;5002084;28;20046;-72
2022/12/11 06:06:30;;;;;;;60.03;24.52;;;-2.10;99.90;;;-3.23;100.00;97103.81;5005142;28;20053;-72
2022/12/11 06:08:59;;;;;;;71.53;25.33;;;-2.10;99.90;;;-3.47;100.00;97091.88;5002591;28;20054;-72
2022/12/11 06:11:29;;;;;;;61.05;23.52;;;-2.10;99.90;;;-3.30;100.00;97091.94;5001009;28;20129;-73
2022/12/11 06:13:56;;;;;;;63.92;23.58;;;-2.10;99.90;;;-3.26;100.00;97092.78;5000977;28;20042;-73
2022/12/11 06:16:23;;;;;;;89.65;30.00;;;-2.10;99.90;;;-3.57;100.00;97090.97;5003680;28;20046;-73
2022/12/11 06:18:50;;;;;;;78.90;27.58;;;-2.10;99.90;;;-3.38;100.00;97085.97;5015968;28;20050;-72
2022/12/11 06:21:30;;;;;;;59.45;18.92;;;-2.10;99.90;;;-3.37;100.00;97091.06;5001848;28;20042;-72
2022/12/11 06:23:59;;;;;;;;;;;-2.20;99.90;;;-3.63;100.00;97106.16;5004307;28;20071;-73
2022/12/11 06:26:27;;;;;;;73.38;20.30;;;-2.10;99.90;;;-3.64;100.00;97096.03;5006036;28;20292;-72
2022/12/11 06:28:54;;;;;;;69.95;23.38;;;-2.10;99.90;;;-3.38;100.00;97096.13;5001747;28;20062;-73
2022/12/11 06:31:21;;;;;;;65.57;22.80;;;-2.10;99.90;;;-3.29;100.00;97097.88;5002139;28;20050;-73
2022/12/11 06:33:48;;;;;;;78.40;26.90;;;-2.10;99.90;;;-3.24;100.00;97093.66;5004213;28;20437;-72
2022/12/11 06:36:20;;;;;;;68.32;24.77;;;-2.10;99.90;;;-3.14;100.00;97089.47;5003818;28;20053;-72
2022/12/11 06:38:47;;;;;;;68.93;25.17;;;-2.00;99.90;;;-3.08;100.00;97082.75;5000607;28;20050;-72
2022/12/11 06:41:15;;;;;;;54.83;22.30;;;-2.00;99.90;;;-3.30;100.00;97091.94;5015506;28;20049;-72
2022/12/11 06:43:42;;;;;;;80.00;28.77;;;-2.00;99.90;;;-3.16;100.00;97082.69;5001712;28;20066;-73
2022/12/11 06:46:16;;;;;;;73.22;25.00;;;-2.10;99.90;;;-3.31;100.00;97081.78;5002283;28;20503;-73
2022/12/11 06:48:44;;;;;;;89.88;27.90;;;-2.10;99.90;;;-3.34;100.00;97092.78;5004972;28;20054;-73
2022/12/11 06:51:14;;;;;;;87.07;28.52;;;-2.20;99.90;;;-3.31;100.00;97097.84;4986260;28;20046;-73
2022/12/11 06:53:41;;;;;;;83.20;28.38;;;-2.10;99.90;;;-3.30;100.00;97104.66;5001997;28;20064;-72
2022/12/11 06:56:14;;;;;;;65.85;24.48;;;-2.10;99.90;;;-3.16;100.00;97102.16;5008215;28;20426;-73
2022/12/11 06:58:42;;;;;;;61.78;19.83;;;-2.10;99.90;;;-3.05;100.00;97103.06;5021864;28;20503;-73
2022/12/11 07:01:22;;;;;;;58.33;21.42;;;-2.00;99.90;;;-3.37;100.00;97100.38;5005305;28;20052;-73
2022/12/11 07:03:53;;;;;;;64.85;24.42;;;-2.00;99.90;;;-3.17;100.00;97095.38;5003030;28;20158;-73
2022/12/11 07:06:20;;;;;;;67.90;26.95;;;-2.00;99.90;;;-3.14;100.00;97104.72;5004516;28;20072;-73
2022/12/11 07:08:48;;;;;;;60.85;23.27;;;-2.00;99.90;;;-3.24;100.00;97106.34;5007993;28;20061;-73
2022/12/11 07:11:16;;;;;;;66.30;26.30;;;-2.00;99.90;;;-3.03;100.00;97100.53;5006470;28;20050;-72
2022/12/11 07:13:44;;;;;;;63.78;23.55;;;-1.90;99.90;;;-3.06;100.00;97101.34;5007202;28;20045;-73
2022/12/11 07:16:14;;;;;;;51.28;19.42;;;-1.90;99.90;;;-2.99;100.00;97092.91;5008420;28;20116;-73
2022/12/11 07:18:46;;;;;;;51.92;21.75;;;-1.90;99.90;;;-3.14;100.00;97100.47;5006912;28;20053;-72
2022/12/11 07:21:14;;;;;;;53.28;21.88;;;-1.90;99.90;;;-3.03;100.00;97091.22;5024244;28;20490;-73
2022/12/11 07:23:41;;;;;;;65.25;25.25;;;-2.00;99.90;;;-3.11;100.00;97092.88;5002905;28;20070;-72
2022/12/11 07:26:13;;;;;;;69.93;26.50;;;-2.00;99.90;;;-3.17;100.00;97091.16;5003841;28;20634;-73
2022/12/11 07:28:40;;;;;;;55.63;24.30;;;-1.90;99.90;;;-3.15;100.00;97098.75;5005327;28;20490;-73
2022/12/11 07:31:10;;;;;;;65.82;24.42;;;-1.90;99.90;;;-3.27;100.00;97107.19;5003073;28;20060;-72
2022/12/11 07:33:37;;;;;;;64.82;25.77;;;-1.80;99.90;;;-3.24;100.00;97108.88;5003488;28;20599;-73
2022/12/11 07:36:08;;;;;;;59.60;25.70;;;-1.80;99.90;;;-3.17;100.00;97114.00;5006275;28;20045;-72
2022/12/11 07:38:35;;;;;;;66.93;26.77;;;-1.70;99.90;;;-3.10;100.00;97114.88;5017554;28;20073;-73
2022/12/11 07:41:05;;;;;;;61.47;23.35;;;-1.70;99.90;;;-3.05;100.00;97112.38;5007696;28;20058;-72
2022/12/11 07:43:33;;;;;;;56.38;24.73;;;-1.70;99.90;;;-2.95;100.00;97112.38;5005449;28;20072;-73
2022/12/11 07:46:16;;;;;;;57.55;24.60;;;-1.70;99.90;;;-3.13;100.00;97114.84;5005052;28;20065;-73
2022/12/11 07:48:45;;;;;;;61.03;22.17;;;-1.60;99.90;;;-3.06;100.00;97115.72;5009309;28;20145;-73
2022/12/11 07:51:18;;;;;;;58.47;24.80;;;-1.60;99.90;;;-3.03;100.00;97119.13;5003172;28;20052;-73
2022/12/11 07:53:48;;;;;;;58.67;21.95;;;-1.60;99.90;;;-2.72;100.00;97108.22;5009826;28;20046;-73
2022/12/11 07:56:16;;;;;;;51.40;22.25;;;-1.50;99.90;;;-2.64;100.00;97112.47;5008660;28;20068;-73
2022/12/11 07:58:44;;;;;;;59.40;25.00;;;-1.50;99.90;;;-2.81;100.00;97119.19;5010464;28;20132;-72
2022/12/11 08:01:22;;;;;;;71.18;27.58;;;-1.50;99.90;;;-2.82;100.00;97122.59;5006492;28;20084;-72
2022/12/11 08:03:49;;;;;;;61.28;25.05;;;-1.50;99.90;;;-2.90;100.00;97111.53;5004848;28;20088;-72
2022/12/11 08:06:17;;;;;;;61.22;26.58;;;-1.50;99.90;;;-2.63;100.00;97108.22;5010166;28;20056;-73
2022/12/11 08:08:44;;;;;;;67.80;27.45;;;-1.60;99.90;;;-2.54;100.00;97110.78;5002338;28;20435;-73
2022/12/11 08:11:13;;;;;;;53.08;23.88;;;-1.50;99.90;;;-2.58;100.00;97102.31;5009428;28;20041;-73
2022/12/11 08:13:43;;;;;;;49.10;22.25;;;-1.40;99.90;;;-2.68;100.00;97100.59;5009157;28;20058;-73
2022/12/11 08:16:13;;;;;;;51.95;24.55;;;-1.30;99.90;;;-2.56;100.00;97105.69;5008093;28;20060;-73
2022/12/11 08:18:42;;;;;;;58.30;24.45;;;-1.30;99.90;;;-2.75;100.00;97103.97;5024273;28;20368;-73
2022/12/11 08:21:13;;;;;;;57.15;25.95;;;-1.30;99.90;;;-2.71;100.00;97104.81;5006926;28;20056;-73
2022/12/11 08:23:41;;;;;;;58.08;25.45;;;-1.30;99.90;;;-2.78;100.00;97116.69;5008460;28;20054;-73
2022/12/11 08:26:13;;;;;;;50.42;23.30;;;-1.40;99.90;;;-2.67;100.00;97109.91;5023904;28;20046;-73
2022/12/11 08:28:40;;;;;;;47.03;17.00;;;-1.30;99.90;;;-2.90;100.00;97126.78;5008618;28;20050;-73
2022/12/11 08:31:10;;;;;;;58.63;25.42;;;-1.30;99.90;;;-2.77;100.00;97119.19;5009418;28;20060;-72
2022/12/11 08:33:38;;;;;;;52.92;23.88;;;-1.30;99.90;;;-2.68;100.00;97118.38;5007094;28;20049;-73
2022/12/11 08:36:09;;;;;;;56.40;24.20;;;-1.40;99.90;;;-2.54;100.00;97124.31;5006719;28;20046;-72
2022/12/11 08:38:36;;;;;;;48.33;22.42;;;-1.40;99.90;;;-2.65;100.00;97120.91;5006204;28;20058;-72
2022/12/11 08:41:10;;;;;;;53.20;25.10;;;-1.50;99.90;;;-2.80;100.00;97125.97;5005792;28;20494;-72
2022/12/11 08:43:37;;;;;;;56.38;24.65;;;-1.40;99.90;;;-2.70;100.00;97120.06;5007782;28;20054;-72
2022/12/11 08:46:05;;;;;;;52.00;24.17;;;-1.40;99.90;;;-2.54;100.00;97123.50;5007856;28;20053;-73
2022/12/11 08:48:34;;;;;;;50.55;23.10;;;-1.40;99.90;;;-2.47;100.00;97119.28;5007320;28;20061;-72
2022/12/11 08:51:04;;;;;;;55.05;24.30;;;-1.40;99.90;;;-2.47;100.00;97119.28;5006721;28;20052;-73
2022/12/11 08:53:31;;;;;;;45.28;20.92;;;-1.30;99.90;;;-2.42;100.00;97123.50;5008428;28;20056;-72
2022/12/11 08:56:05;;;;;;;55.97;24.80;;;-1.20;99.90;;;-2.23;100.00;97123.53;5007444;28;20372;-72
2022/12/11 08:58:33;;;;;;;50.03;23.90;;;-1.20;99.90;;;-2.11;100.00;97114.19;4990753;28;20049;-72
2022/12/11 09:01:05;;;;;;;46.40;22.08;;;-1.10;99.90;;;-2.09;100.00;97108.28;5008841;28;20050;-72
2022/12/11 09:03:32;;;;;;;51.47;24.33;;;-0.90;99.90;;;-2.05;100.00;97105.75;5004836;28;20056;-73
2022/12/11 09:06:06;;;;;;;58.70;25.20;;;-0.90;99.90;;;-2.12;100.00;97106.59;5006904;28;20080;-72
2022/12/11 09:08:34;;;;;;;57.10;25.65;;;-0.90;99.90;;;-2.56;100.00;97100.59;5005820;28;20133;-73
2022/12/11 09:11:19;;;;;;;50.63;23.30;;;-1.00;99.90;;;-2.23;100.00;97100.66;5003423;28;20492;-72
2022/12/11 09:13:47;;;;;;;48.35;23.63;;;-1.00;99.90;;;-2.27;100.00;97088.78;5007708;28;20508;-72
2022/12/11 09:16:17;;;;;;;51.88;25.27;;;-1.00;99.90;;;-2.35;100.00;97092.19;5003454;28;20060;-72
2022/12/11 09:18:49;;;;;;;53.63;23.63;;;-1.00;99.90;;;-2.19;100.00;97092.16;5008280;28;20147;-73
2022/12/11 09:21:20;;;;;;;55.85;25.60;;;-1.00;99.90;;;-2.27;100.00;97089.63;4989881;28;20049;-73
2022/12/11 09:23:48;;;;;;;49.40;23.50;;;-0.90;99.90;;;-2.09;100.00;97088.78;5006893;28;20057;-72
2022/12/11 09:26:17;;;;;;;61.90;26.98;;;-0.90;99.90;;;-2.39;100.00;97082.00;5004020;28;20050;-73
2022/12/11 09:28:45;;;;;;;50.47;25.52;;;-0.80;99.90;;;-2.20;100.00;97081.16;5006727;28;20531;-73
2022/12/11 09:31:27;;;;;;;51.53;23.75;;;-0.70;99.90;;;-1.86;100.00;97081.13;5006975;28;20069;-73
2022/12/11 09:34:02;;;;;;;61.15;26.17;;;-0.60;99.90;;;-2.23;100.00;97082.88;5007020;28;20391;-73
2022/12/11 09:36:29;;;;;;;63.85;24.75;;;-0.60;99.90;;;-2.53;100.00;97087.94;5008139;28;20038;-73
2022/12/11 09:39:01;;;;;;;53.40;24.75;;;-0.70;99.90;;;-2.31;100.00;97083.69;5002801;28;20054;-73
2022/12/11 09:41:39;;;;;;;47.65;23.23;;;-0.70;99.90;;;-2.32;100.00;97084.53;5008108;28;20449;-73
2022/12/11 09:44:30;;;;;;;55.53;25.85;;;-0.80;99.90;;;-2.46;100.00;97081.16;5008592;28;20123;-73
2022/12/11 09:46:58;;;;;;;54.92;23.38;;;-0.90;99.90;;;-2.47;100.00;97081.16;5006455;28;20054;-73
2022/12/11 09:49:38;;;;;;;51.22;22.05;;;-0.80;99.90;;;-2.12;100.00;97082.00;5006300;28;20058;-73
2022/12/11 09:52:12;;;;;;;54.58;23.65;;;-0.80;99.90;;;-2.30;100.00;97076.94;5020697;28;20042;-72
2022/12/11 09:54:52;;;;;;;57.10;23.83;;;-0.80;99.90;;;-2.14;100.00;97072.69;5002728;28;20053;-72
2022/12/11 09:57:51;;;;;;;59.28;27.08;;;-0.80;99.90;;;-2.04;100.00;97071.81;5006721;28;20176;-72
2022/12/11 10:00:28;;;;;;;62.50;27.08;;;-0.70;99.90;;;-2.02;100.00;97075.22;5007623;28;20133;-73
2022/12/11 10:03:29;;;;;;;55.92;23.15;;;-0.70;99.90;;;-2.24;100.00;97073.53;5021143;28;20054;-72
2022/12/11 10:06:20;;;;;;;49.25;22.75;;;-0.70;99.90;;;-2.26;100.00;97068.44;5006408;28;20060;-72
2022/12/11 10:09:13;;;;;;;51.63;22.92;;;-0.60;99.90;;;-2.38;100.00;97073.53;5009219;28;20049;-72
2022/12/11 10:11:52;;;;;;;57.42;23.77;;;-0.70;99.90;;;-2.48;100.00;97065.06;5004135;28;20480;-72
2022/12/11 10:14:31;;;;;;;58.75;24.35;;;-0.70;99.90;;;-2.22;100.00;97062.50;5001527;28;20112;-72
2022/12/11 10:17:20;;;;;;;50.33;23.60;;;-0.70;99.90;;;-1.80;100.00;97062.44;5005531;28;20061;-72
2022/12/11 10:19:48;;;;;;;46.03;23.05;;;-0.70;99.90;;;-1.72;100.00;97056.50;5002041;28;20049;-72
2022/12/11 10:22:29;;;;;;;46.25;23.35;;;-0.60;99.90;;;-1.98;100.00;97053.19;4994091;28;20049;-72
2022/12/11 10:25:01;;;;;;;55.85;25.08;;;-0.40;99.90;;;-2.22;100.00;97044.72;5018732;28;20088;-72
2022/12/11 10:31:50;;;;;;;51.22;22.88;;;-0.30;99.90;;;-1.85;100.00;97042.09;4992404;28;20084;-72
2022/12/11 10:34:35;;;;;;;60.40;25.10;;;-0.30;99.90;;;-1.54;100.00;97037.78;5016497;28;20593;-72